sensor_id;sensor_type;location;lat;lon;timestamp;P1;durP1;ratioP1;P2;durP2;ratioP2
9767;SDS011;4923;52.520;13.494;2023-02-01T00:02:37;16.50;;;2.00;;
9767;SDS011;4923;52.520;13.494;2023-02-01T00:05:25;15.52;;;2.10;;
9767;SDS011;4923;52.520;13.494;2023-02-01T00:08:12;6.53;;;1.73;;
9767;SDS011;4923;52.520;13.494;2023-02-01T00:11:01;15.88;;;2.33;;
9767;SDS011;4923;52.520;13.494;2023-02-01T00:13:50;16.50;;;2.80;;
9767;SDS011;4923;52.520;13.494;2023-02-01T00:16:37;7.70;;;1.10;;
9767;SDS011;4923;52.520;13.494;2023-02-01T00:19:24;16.17;;;2.05;;
9767;SDS011;4923;52.520;13.494;2023-02-01T00:22:11;7.75;;;1.67;;
9767;SDS011;4923;52.520;13.494;2023-02-01T00:24:58;11.60;;;1.70;;
9767;SDS011;4923;52.520;13.494;2023-02-01T00:27:49;15.00;;;2.08;;
9767;SDS011;4923;52.520;13.494;2023-02-01T00:30:36;16.40;;;2.42;;
9767;SDS011;4923;52.520;13.494;2023-02-01T00:33:23;17.73;;;1.77;;
9767;SDS011;4923;52.520;13.494;2023-02-01T00:36:10;17.83;;;1.80;;
9767;SDS011;4923;52.520;13.494;2023-02-01T00:38:57;8.35;;;2.13;;
9767;SDS011;4923;52.520;13.494;2023-02-01T00:41:44;26.88;;;2.05;;
9767;SDS011;4923;52.520;13.494;2023-02-01T00:44:32;14.05;;;2.75;;
9767;SDS011;4923;52.520;13.494;2023-02-01T00:47:20;9.10;;;1.55;;
9767;SDS011;4923;52.520;13.494;2023-02-01T00:50:07;13.95;;;2.05;;
9767;SDS011;4923;52.520;13.494;2023-02-01T00:52:55;26.05;;;2.17;;
9767;SDS011;4923;52.520;13.494;2023-02-01T00:55:44;19.45;;;1.95;;
9767;SDS011;4923;52.520;13.494;2023-02-01T00:58:31;9.55;;;1.83;;
9767;SDS011;4923;52.520;13.494;2023-02-01T01:01:21;7.78;;;1.23;;
9767;SDS011;4923;52.520;13.494;2023-02-01T01:04:09;7.95;;;1.13;;
9767;SDS011;4923;52.520;13.494;2023-02-01T01:06:56;6.25;;;1.73;;
9767;SDS011;4923;52.520;13.494;2023-02-01T01:09:43;7.25;;;1.58;;
9767;SDS011;4923;52.520;13.494;2023-02-01T01:12:29;6.90;;;1.73;;
9767;SDS011;4923;52.520;13.494;2023-02-01T01:15:16;6.97;;;1.63;;
9767;SDS011;4923;52.520;13.494;2023-02-01T01:18:05;6.93;;;1.27;;
9767;SDS011;4923;52.520;13.494;2023-02-01T01:20:52;13.20;;;1.90;;
9767;SDS011;4923;52.520;13.494;2023-02-01T01:23:39;9.52;;;1.15;;
9767;SDS011;4923;52.520;13.494;2023-02-01T01:26:27;5.97;;;1.55;;
9767;SDS011;4923;52.520;13.494;2023-02-01T01:29:15;15.13;;;2.22;;
9767;SDS011;4923;52.520;13.494;2023-02-01T01:32:02;5.40;;;1.30;;
9767;SDS011;4923;52.520;13.494;2023-02-01T01:34:50;7.88;;;1.50;;
9767;SDS011;4923;52.520;13.494;2023-02-01T01:37:37;3.40;;;1.15;;
9767;SDS011;4923;52.520;13.494;2023-02-01T01:40:24;10.07;;;1.67;;
9767;SDS011;4923;52.520;13.494;2023-02-01T01:43:13;12.82;;;1.65;;
9767;SDS011;4923;52.520;13.494;2023-02-01T01:46:00;7.82;;;1.85;;
9767;SDS011;4923;52.520;13.494;2023-02-01T01:48:48;2.85;;;1.38;;
9767;SDS011;4923;52.520;13.494;2023-02-01T01:51:40;17.33;;;1.35;;
9767;SDS011;4923;52.520;13.494;2023-02-01T01:54:31;17.25;;;1.60;;
9767;SDS011;4923;52.520;13.494;2023-02-01T01:57:22;12.52;;;1.00;;
9767;SDS011;4923;52.520;13.494;2023-02-01T02:00:14;6.88;;;1.20;;
9767;SDS011;4923;52.520;13.494;2023-02-01T02:03:05;8.32;;;1.00;;
9767;SDS011;4923;52.520;13.494;2023-02-01T02:05:58;14.52;;;1.20;;
9767;SDS011;4923;52.520;13.494;2023-02-01T02:08:48;11.25;;;2.33;;
9767;SDS011;4923;52.520;13.494;2023-02-01T02:11:35;13.43;;;1.42;;
9767;SDS011;4923;52.520;13.494;2023-02-01T02:14:22;6.40;;;1.40;;
9767;SDS011;4923;52.520;13.494;2023-02-01T02:17:16;15.25;;;1.40;;
9767;SDS011;4923;52.520;13.494;2023-02-01T02:20:28;13.02;;;1.20;;
9767;SDS011;4923;52.520;13.494;2023-02-01T02:30:30;5.25;;;1.80;;
9767;SDS011;4923;52.520;13.494;2023-02-01T02:33:36;12.63;;;2.22;;
9767;SDS011;4923;52.520;13.494;2023-02-01T02:36:36;17.55;;;1.02;;
9767;SDS011;4923;52.520;13.494;2023-02-01T02:39:33;12.98;;;1.95;;
9767;SDS011;4923;52.520;13.494;2023-02-01T02:42:27;14.52;;;1.70;;
9767;SDS011;4923;52.520;13.494;2023-02-01T02:45:37;6.65;;;1.55;;
9767;SDS011;4923;52.520;13.494;2023-02-01T02:48:50;10.00;;;1.65;;
9767;SDS011;4923;52.520;13.494;2023-02-01T02:51:41;11.32;;;1.63;;
9767;SDS011;4923;52.520;13.494;2023-02-01T02:54:50;11.85;;;1.55;;
9767;SDS011;4923;52.520;13.494;2023-02-01T02:57:40;12.40;;;1.60;;
9767;SDS011;4923;52.520;13.494;2023-02-01T03:00:47;20.35;;;2.38;;
9767;SDS011;4923;52.520;13.494;2023-02-01T03:03:54;8.75;;;1.70;;
9767;SDS011;4923;52.520;13.494;2023-02-01T03:06:54;11.35;;;2.17;;
9767;SDS011;4923;52.520;13.494;2023-02-01T03:09:41;15.13;;;2.15;;
9767;SDS011;4923;52.520;13.494;2023-02-01T03:12:33;10.40;;;1.98;;
9767;SDS011;4923;52.520;13.494;2023-02-01T03:15:45;11.43;;;1.73;;
9767;SDS011;4923;52.520;13.494;2023-02-01T03:18:42;5.53;;;2.00;;
9767;SDS011;4923;52.520;13.494;2023-02-01T03:21:38;7.30;;;2.10;;
9767;SDS011;4923;52.520;13.494;2023-02-01T03:24:29;13.75;;;1.52;;
9767;SDS011;4923;52.520;13.494;2023-02-01T03:27:20;19.30;;;2.25;;
9767;SDS011;4923;52.520;13.494;2023-02-01T03:30:11;5.68;;;1.52;;
9767;SDS011;4923;52.520;13.494;2023-02-01T03:33:04;10.13;;;1.98;;
9767;SDS011;4923;52.520;13.494;2023-02-01T03:36:01;21.50;;;2.33;;
9767;SDS011;4923;52.520;13.494;2023-02-01T03:38:55;11.90;;;1.80;;
9767;SDS011;4923;52.520;13.494;2023-02-01T03:41:49;14.10;;;2.30;;
9767;SDS011;4923;52.520;13.494;2023-02-01T03:44:38;15.13;;;2.20;;
9767;SDS011;4923;52.520;13.494;2023-02-01T03:47:30;13.23;;;1.83;;
9767;SDS011;4923;52.520;13.494;2023-02-01T03:50:21;17.38;;;2.15;;
9767;SDS011;4923;52.520;13.494;2023-02-01T03:53:12;9.45;;;1.52;;
9767;SDS011;4923;52.520;13.494;2023-02-01T03:56:04;10.35;;;2.08;;
9767;SDS011;4923;52.520;13.494;2023-02-01T03:58:52;25.75;;;1.98;;
9767;SDS011;4923;52.520;13.494;2023-02-01T04:01:45;8.98;;;1.65;;
9767;SDS011;4923;52.520;13.494;2023-02-01T04:04:32;16.48;;;2.63;;
9767;SDS011;4923;52.520;13.494;2023-02-01T04:07:20;6.53;;;0.90;;
9767;SDS011;4923;52.520;13.494;2023-02-01T04:10:07;19.27;;;2.95;;
9767;SDS011;4923;52.520;13.494;2023-02-01T04:12:56;8.13;;;1.40;;
9767;SDS011;4923;52.520;13.494;2023-02-01T04:15:43;17.27;;;1.65;;
9767;SDS011;4923;52.520;13.494;2023-02-01T04:18:30;20.63;;;1.83;;
9767;SDS011;4923;52.520;13.494;2023-02-01T04:21:17;14.18;;;1.55;;
9767;SDS011;4923;52.520;13.494;2023-02-01T04:24:05;10.93;;;1.45;;
9767;SDS011;4923;52.520;13.494;2023-02-01T04:26:52;9.20;;;1.60;;
9767;SDS011;4923;52.520;13.494;2023-02-01T04:29:40;14.50;;;2.08;;
9767;SDS011;4923;52.520;13.494;2023-02-01T04:32:27;19.48;;;2.28;;
9767;SDS011;4923;52.520;13.494;2023-02-01T04:35:14;20.52;;;2.63;;
9767;SDS011;4923;52.520;13.494;2023-02-01T04:38:03;8.18;;;2.28;;
9767;SDS011;4923;52.520;13.494;2023-02-01T04:40:49;11.15;;;1.73;;
9767;SDS011;4923;52.520;13.494;2023-02-01T04:43:36;17.17;;;2.70;;
9767;SDS011;4923;52.520;13.494;2023-02-01T04:46:24;9.30;;;1.70;;
9767;SDS011;4923;52.520;13.494;2023-02-01T04:49:11;11.55;;;1.70;;
9767;SDS011;4923;52.520;13.494;2023-02-01T04:51:59;4.20;;;1.50;;
9767;SDS011;4923;52.520;13.494;2023-02-01T04:54:46;11.32;;;2.17;;
9767;SDS011;4923;52.520;13.494;2023-02-01T04:57:33;20.90;;;1.90;;
9767;SDS011;4923;52.520;13.494;2023-02-01T05:00:20;14.70;;;2.65;;
9767;SDS011;4923;52.520;13.494;2023-02-01T05:03:08;14.18;;;2.00;;
9767;SDS011;4923;52.520;13.494;2023-02-01T05:05:55;13.50;;;2.25;;
9767;SDS011;4923;52.520;13.494;2023-02-01T05:08:42;19.88;;;2.50;;
9767;SDS011;4923;52.520;13.494;2023-02-01T05:11:29;13.38;;;1.45;;
9767;SDS011;4923;52.520;13.494;2023-02-01T05:14:34;11.40;;;1.65;;
9767;SDS011;4923;52.520;13.494;2023-02-01T05:17:20;18.75;;;3.80;;
9767;SDS011;4923;52.520;13.494;2023-02-01T05:20:09;10.27;;;2.58;;
9767;SDS011;4923;52.520;13.494;2023-02-01T05:22:57;19.50;;;2.40;;
9767;SDS011;4923;52.520;13.494;2023-02-01T05:25:44;15.55;;;2.40;;
9767;SDS011;4923;52.520;13.494;2023-02-01T05:28:30;19.10;;;2.90;;
9767;SDS011;4923;52.520;13.494;2023-02-01T05:31:17;15.65;;;2.00;;
9767;SDS011;4923;52.520;13.494;2023-02-01T05:34:05;14.18;;;3.08;;
9767;SDS011;4923;52.520;13.494;2023-02-01T05:36:53;12.98;;;2.10;;
9767;SDS011;4923;52.520;13.494;2023-02-01T05:39:40;17.77;;;1.95;;
9767;SDS011;4923;52.520;13.494;2023-02-01T05:42:27;17.00;;;1.83;;
9767;SDS011;4923;52.520;13.494;2023-02-01T05:45:14;14.73;;;1.70;;
9767;SDS011;4923;52.520;13.494;2023-02-01T05:48:00;15.90;;;2.00;;
9767;SDS011;4923;52.520;13.494;2023-02-01T05:50:47;11.32;;;1.90;;
9767;SDS011;4923;52.520;13.494;2023-02-01T05:53:35;12.05;;;2.10;;
9767;SDS011;4923;52.520;13.494;2023-02-01T05:56:23;15.88;;;2.42;;
9767;SDS011;4923;52.520;13.494;2023-02-01T05:59:10;11.98;;;2.42;;
9767;SDS011;4923;52.520;13.494;2023-02-01T06:01:56;10.43;;;2.10;;
9767;SDS011;4923;52.520;13.494;2023-02-01T06:04:43;6.85;;;2.13;;
9767;SDS011;4923;52.520;13.494;2023-02-01T06:07:30;11.77;;;1.80;;
9767;SDS011;4923;52.520;13.494;2023-02-01T06:10:19;13.43;;;2.33;;
9767;SDS011;4923;52.520;13.494;2023-02-01T06:13:06;12.00;;;2.75;;
9767;SDS011;4923;52.520;13.494;2023-02-01T06:15:53;3.97;;;1.60;;
9767;SDS011;4923;52.520;13.494;2023-02-01T06:18:41;25.80;;;2.35;;
9767;SDS011;4923;52.520;13.494;2023-02-01T06:21:28;7.65;;;2.10;;
9767;SDS011;4923;52.520;13.494;2023-02-01T06:24:15;12.80;;;3.05;;
9767;SDS011;4923;52.520;13.494;2023-02-01T06:27:03;13.93;;;2.67;;
9767;SDS011;4923;52.520;13.494;2023-02-01T06:29:50;13.75;;;2.28;;
9767;SDS011;4923;52.520;13.494;2023-02-01T06:32:37;16.98;;;2.95;;
9767;SDS011;4923;52.520;13.494;2023-02-01T06:35:25;11.95;;;1.98;;
9767;SDS011;4923;52.520;13.494;2023-02-01T06:38:12;17.88;;;2.95;;
9767;SDS011;4923;52.520;13.494;2023-02-01T06:40:59;10.63;;;1.65;;
9767;SDS011;4923;52.520;13.494;2023-02-01T06:43:47;15.60;;;3.22;;
9767;SDS011;4923;52.520;13.494;2023-02-01T06:46:34;13.25;;;2.15;;
9767;SDS011;4923;52.520;13.494;2023-02-01T06:49:20;18.88;;;3.05;;
9767;SDS011;4923;52.520;13.494;2023-02-01T06:52:07;19.05;;;2.63;;
9767;SDS011;4923;52.520;13.494;2023-02-01T06:54:54;6.70;;;1.80;;
9767;SDS011;4923;52.520;13.494;2023-02-01T06:57:41;11.30;;;2.05;;
9767;SDS011;4923;52.520;13.494;2023-02-01T07:00:29;7.80;;;1.70;;
9767;SDS011;4923;52.520;13.494;2023-02-01T07:03:16;5.78;;;1.88;;
9767;SDS011;4923;52.520;13.494;2023-02-01T07:06:03;10.45;;;1.98;;
9767;SDS011;4923;52.520;13.494;2023-02-01T07:08:52;14.85;;;2.03;;
9767;SDS011;4923;52.520;13.494;2023-02-01T07:11:41;10.18;;;2.80;;
9767;SDS011;4923;52.520;13.494;2023-02-01T07:14:29;12.70;;;1.52;;
9767;SDS011;4923;52.520;13.494;2023-02-01T07:17:17;9.45;;;1.75;;
9767;SDS011;4923;52.520;13.494;2023-02-01T07:20:04;18.88;;;2.20;;
9767;SDS011;4923;52.520;13.494;2023-02-01T07:22:54;9.77;;;2.45;;
9767;SDS011;4923;52.520;13.494;2023-02-01T07:25:41;16.85;;;1.92;;
9767;SDS011;4923;52.520;13.494;2023-02-01T07:28:29;5.55;;;1.40;;
9767;SDS011;4923;52.520;13.494;2023-02-01T07:31:17;4.85;;;1.45;;
9767;SDS011;4923;52.520;13.494;2023-02-01T07:34:08;21.63;;;3.45;;
9767;SDS011;4923;52.520;13.494;2023-02-01T07:36:55;9.55;;;2.15;;
9767;SDS011;4923;52.520;13.494;2023-02-01T07:39:42;8.35;;;1.77;;
9767;SDS011;4923;52.520;13.494;2023-02-01T07:42:28;9.15;;;2.15;;
9767;SDS011;4923;52.520;13.494;2023-02-01T07:45:15;11.88;;;1.60;;
9767;SDS011;4923;52.520;13.494;2023-02-01T07:48:03;14.57;;;2.35;;
9767;SDS011;4923;52.520;13.494;2023-02-01T07:50:57;11.75;;;1.33;;
9767;SDS011;4923;52.520;13.494;2023-02-01T07:53:45;14.07;;;3.15;;
9767;SDS011;4923;52.520;13.494;2023-02-01T07:56:32;18.05;;;3.58;;
9767;SDS011;4923;52.520;13.494;2023-02-01T07:59:18;7.45;;;1.85;;
9767;SDS011;4923;52.520;13.494;2023-02-01T08:02:05;11.25;;;2.13;;
9767;SDS011;4923;52.520;13.494;2023-02-01T08:04:52;2.47;;;1.20;;
9767;SDS011;4923;52.520;13.494;2023-02-01T08:07:41;4.65;;;1.95;;
9767;SDS011;4923;52.520;13.494;2023-02-01T08:10:27;5.20;;;2.03;;
9767;SDS011;4923;52.520;13.494;2023-02-01T08:13:14;7.18;;;2.50;;
9767;SDS011;4923;52.520;13.494;2023-02-01T08:16:02;8.40;;;1.50;;
9767;SDS011;4923;52.520;13.494;2023-02-01T08:18:51;7.22;;;1.23;;
9767;SDS011;4923;52.520;13.494;2023-02-01T08:21:39;12.43;;;1.95;;
9767;SDS011;4923;52.520;13.494;2023-02-01T08:24:27;7.82;;;1.60;;
9767;SDS011;4923;52.520;13.494;2023-02-01T08:27:14;10.25;;;2.13;;
9767;SDS011;4923;52.520;13.494;2023-02-01T08:30:01;11.02;;;2.20;;
9767;SDS011;4923;52.520;13.494;2023-02-01T08:32:48;5.22;;;1.60;;
9767;SDS011;4923;52.520;13.494;2023-02-01T08:35:35;3.45;;;0.80;;
9767;SDS011;4923;52.520;13.494;2023-02-01T08:38:23;5.05;;;1.10;;
9767;SDS011;4923;52.520;13.494;2023-02-01T08:41:12;1.80;;;1.13;;
9767;SDS011;4923;52.520;13.494;2023-02-01T08:44:00;2.08;;;1.25;;
9767;SDS011;4923;52.520;13.494;2023-02-01T08:46:47;2.60;;;1.10;;
9767;SDS011;4923;52.520;13.494;2023-02-01T08:49:34;6.93;;;1.45;;
9767;SDS011;4923;52.520;13.494;2023-02-01T08:52:21;2.25;;;0.90;;
9767;SDS011;4923;52.520;13.494;2023-02-01T08:55:08;3.25;;;0.90;;
9767;SDS011;4923;52.520;13.494;2023-02-01T08:57:57;5.50;;;1.75;;
9767;SDS011;4923;52.520;13.494;2023-02-01T09:00:44;3.47;;;1.17;;
9767;SDS011;4923;52.520;13.494;2023-02-01T09:03:31;2.90;;;1.20;;
9767;SDS011;4923;52.520;13.494;2023-02-01T09:06:18;1.05;;;0.93;;
9767;SDS011;4923;52.520;13.494;2023-02-01T09:09:04;5.50;;;1.23;;
9767;SDS011;4923;52.520;13.494;2023-02-01T09:11:51;4.38;;;1.40;;
9767;SDS011;4923;52.520;13.494;2023-02-01T09:14:40;1.30;;;1.05;;
9767;SDS011;4923;52.520;13.494;2023-02-01T09:17:27;11.65;;;1.42;;
9767;SDS011;4923;52.520;13.494;2023-02-01T09:20:14;2.25;;;1.23;;
9767;SDS011;4923;52.520;13.494;2023-02-01T09:23:02;3.63;;;1.13;;
9767;SDS011;4923;52.520;13.494;2023-02-01T09:25:51;4.53;;;1.10;;
9767;SDS011;4923;52.520;13.494;2023-02-01T09:28:38;4.05;;;1.30;;
9767;SDS011;4923;52.520;13.494;2023-02-01T09:31:27;6.15;;;1.13;;
9767;SDS011;4923;52.520;13.494;2023-02-01T09:34:13;3.67;;;1.00;;
9767;SDS011;4923;52.520;13.494;2023-02-01T09:37:00;2.42;;;0.70;;
9767;SDS011;4923;52.520;13.494;2023-02-01T09:39:48;2.28;;;0.88;;
9767;SDS011;4923;52.520;13.494;2023-02-01T09:42:45;1.13;;;0.50;;
9767;SDS011;4923;52.520;13.494;2023-02-01T09:45:43;1.80;;;0.70;;
9767;SDS011;4923;52.520;13.494;2023-02-01T09:48:39;3.83;;;0.80;;
9767;SDS011;4923;52.520;13.494;2023-02-01T09:51:30;0.73;;;0.60;;
9767;SDS011;4923;52.520;13.494;2023-02-01T09:54:22;1.30;;;0.47;;
9767;SDS011;4923;52.520;13.494;2023-02-01T09:57:13;0.30;;;0.30;;
9767;SDS011;4923;52.520;13.494;2023-02-01T10:00:06;0.63;;;0.50;;
9767;SDS011;4923;52.520;13.494;2023-02-01T10:03:03;0.50;;;0.50;;
9767;SDS011;4923;52.520;13.494;2023-02-01T10:06:02;0.90;;;0.30;;
9767;SDS011;4923;52.520;13.494;2023-02-01T10:09:17;2.67;;;0.60;;
9767;SDS011;4923;52.520;13.494;2023-02-01T10:12:23;0.90;;;0.90;;
9767;SDS011;4923;52.520;13.494;2023-02-01T10:15:35;0.40;;;0.40;;
9767;SDS011;4923;52.520;13.494;2023-02-01T10:18:37;1.02;;;0.40;;
9767;SDS011;4923;52.520;13.494;2023-02-01T10:21:46;0.98;;;0.47;;
9767;SDS011;4923;52.520;13.494;2023-02-01T10:24:41;2.35;;;0.50;;
9767;SDS011;4923;52.520;13.494;2023-02-01T10:27:33;0.85;;;0.70;;
9767;SDS011;4923;52.520;13.494;2023-02-01T10:30:22;0.65;;;0.60;;
9767;SDS011;4923;52.520;13.494;2023-02-01T10:33:14;3.67;;;0.60;;
9767;SDS011;4923;52.520;13.494;2023-02-01T10:36:04;3.17;;;0.60;;
9767;SDS011;4923;52.520;13.494;2023-02-01T10:39:08;5.30;;;0.88;;
9767;SDS011;4923;52.520;13.494;2023-02-01T10:41:58;3.42;;;0.60;;
9767;SDS011;4923;52.520;13.494;2023-02-01T10:44:45;9.93;;;0.90;;
9767;SDS011;4923;52.520;13.494;2023-02-01T10:47:33;0.70;;;0.70;;
9767;SDS011;4923;52.520;13.494;2023-02-01T10:50:24;2.97;;;0.60;;
9767;SDS011;4923;52.520;13.494;2023-02-01T10:53:21;1.65;;;0.88;;
9767;SDS011;4923;52.520;13.494;2023-02-01T10:56:12;1.83;;;0.82;;
9767;SDS011;4923;52.520;13.494;2023-02-01T10:59:00;8.35;;;0.70;;
9767;SDS011;4923;52.520;13.494;2023-02-01T11:01:49;1.38;;;0.60;;
9767;SDS011;4923;52.520;13.494;2023-02-01T11:04:43;2.05;;;0.50;;
9767;SDS011;4923;52.520;13.494;2023-02-01T11:07:30;1.48;;;0.65;;
9767;SDS011;4923;52.520;13.494;2023-02-01T11:13:27;4.25;;;0.60;;
9767;SDS011;4923;52.520;13.494;2023-02-01T11:16:17;2.55;;;0.90;;
9767;SDS011;4923;52.520;13.494;2023-02-01T11:19:05;3.55;;;0.80;;
9767;SDS011;4923;52.520;13.494;2023-02-01T11:21:53;6.60;;;1.00;;
9767;SDS011;4923;52.520;13.494;2023-02-01T11:24:44;2.05;;;1.00;;
9767;SDS011;4923;52.520;13.494;2023-02-01T11:27:32;2.47;;;0.90;;
9767;SDS011;4923;52.520;13.494;2023-02-01T11:30:25;4.72;;;0.80;;
9767;SDS011;4923;52.520;13.494;2023-02-01T11:33:18;3.45;;;0.88;;
9767;SDS011;4923;52.520;13.494;2023-02-01T11:36:10;0.70;;;0.43;;
9767;SDS011;4923;52.520;13.494;2023-02-01T11:39:14;3.08;;;0.70;;
9767;SDS011;4923;52.520;13.494;2023-02-01T11:42:12;9.05;;;1.10;;
9767;SDS011;4923;52.520;13.494;2023-02-01T11:45:16;6.35;;;0.85;;
9767;SDS011;4923;52.520;13.494;2023-02-01T11:48:09;2.35;;;0.88;;
9767;SDS011;4923;52.520;13.494;2023-02-01T11:51:07;7.65;;;1.00;;
9767;SDS011;4923;52.520;13.494;2023-02-01T11:54:11;6.32;;;0.85;;
9767;SDS011;4923;52.520;13.494;2023-02-01T11:57:12;4.97;;;0.80;;
9767;SDS011;4923;52.520;13.494;2023-02-01T12:00:15;3.97;;;0.90;;
9767;SDS011;4923;52.520;13.494;2023-02-01T12:03:37;3.90;;;1.10;;
9767;SDS011;4923;52.520;13.494;2023-02-01T12:06:46;2.92;;;0.70;;
9767;SDS011;4923;52.520;13.494;2023-02-01T12:09:40;6.47;;;0.80;;
9767;SDS011;4923;52.520;13.494;2023-02-01T12:12:37;2.80;;;0.80;;
9767;SDS011;4923;52.520;13.494;2023-02-01T12:15:35;3.75;;;0.77;;
9767;SDS011;4923;52.520;13.494;2023-02-01T12:18:41;4.88;;;1.13;;
9767;SDS011;4923;52.520;13.494;2023-02-01T12:21:42;7.20;;;1.10;;
9767;SDS011;4923;52.520;13.494;2023-02-01T12:24:46;9.90;;;1.00;;
9767;SDS011;4923;52.520;13.494;2023-02-01T12:27:49;3.80;;;0.80;;
9767;SDS011;4923;52.520;13.494;2023-02-01T12:31:07;2.00;;;0.90;;
9767;SDS011;4923;52.520;13.494;2023-02-01T12:37:30;4.20;;;1.05;;
9767;SDS011;4923;52.520;13.494;2023-02-01T12:40:40;5.88;;;1.50;;
9767;SDS011;4923;52.520;13.494;2023-02-01T12:43:36;3.75;;;0.63;;
9767;SDS011;4923;52.520;13.494;2023-02-01T12:46:29;3.58;;;1.25;;
9767;SDS011;4923;52.520;13.494;2023-02-01T12:49:21;2.90;;;0.80;;
9767;SDS011;4923;52.520;13.494;2023-02-01T12:52:15;4.03;;;1.33;;
9767;SDS011;4923;52.520;13.494;2023-02-01T12:55:09;3.63;;;1.10;;
9767;SDS011;4923;52.520;13.494;2023-02-01T12:58:05;6.85;;;1.20;;
9767;SDS011;4923;52.520;13.494;2023-02-01T13:00:58;6.25;;;0.98;;
9767;SDS011;4923;52.520;13.494;2023-02-01T13:03:50;7.40;;;0.80;;
9767;SDS011;4923;52.520;13.494;2023-02-01T13:06:43;4.70;;;1.58;;
9767;SDS011;4923;52.520;13.494;2023-02-01T13:09:37;17.42;;;1.30;;
9767;SDS011;4923;52.520;13.494;2023-02-01T13:12:28;9.88;;;1.23;;
9767;SDS011;4923;52.520;13.494;2023-02-01T13:15:20;11.02;;;1.20;;
9767;SDS011;4923;52.520;13.494;2023-02-01T13:18:13;8.32;;;1.00;;
9767;SDS011;4923;52.520;13.494;2023-02-01T13:21:04;3.33;;;0.73;;
9767;SDS011;4923;52.520;13.494;2023-02-01T13:23:54;4.95;;;0.80;;
9767;SDS011;4923;52.520;13.494;2023-02-01T13:26:43;0.63;;;0.40;;
9767;SDS011;4923;52.520;13.494;2023-02-01T13:29:32;1.08;;;0.40;;
9767;SDS011;4923;52.520;13.494;2023-02-01T13:32:24;0.80;;;0.50;;
9767;SDS011;4923;52.520;13.494;2023-02-01T13:35:33;4.57;;;0.80;;
9767;SDS011;4923;52.520;13.494;2023-02-01T13:38:44;0.98;;;0.50;;
9767;SDS011;4923;52.520;13.494;2023-02-01T13:41:55;4.00;;;0.90;;
9767;SDS011;4923;52.520;13.494;2023-02-01T13:44:45;4.00;;;0.90;;
9767;SDS011;4923;52.520;13.494;2023-02-01T13:47:35;2.05;;;0.70;;
9767;SDS011;4923;52.520;13.494;2023-02-01T13:50:27;3.53;;;1.10;;
9767;SDS011;4923;52.520;13.494;2023-02-01T13:53:21;5.63;;;1.85;;
9767;SDS011;4923;52.520;13.494;2023-02-01T13:56:12;4.03;;;1.02;;
9767;SDS011;4923;52.520;13.494;2023-02-01T13:59:16;7.82;;;1.13;;
9767;SDS011;4923;52.520;13.494;2023-02-01T14:02:46;7.38;;;1.10;;
9767;SDS011;4923;52.520;13.494;2023-02-01T14:05:55;3.15;;;0.98;;
9767;SDS011;4923;52.520;13.494;2023-02-01T14:08:46;4.15;;;1.10;;
9767;SDS011;4923;52.520;13.494;2023-02-01T14:11:58;2.65;;;0.90;;
9767;SDS011;4923;52.520;13.494;2023-02-01T14:15:22;2.75;;;0.73;;
9767;SDS011;4923;52.520;13.494;2023-02-01T14:21:32;6.20;;;1.30;;
9767;SDS011;4923;52.520;13.494;2023-02-01T14:24:23;6.25;;;1.20;;
9767;SDS011;4923;52.520;13.494;2023-02-01T14:27:14;2.05;;;1.40;;
9767;SDS011;4923;52.520;13.494;2023-02-01T14:30:06;7.53;;;1.70;;
9767;SDS011;4923;52.520;13.494;2023-02-01T14:33:02;9.88;;;1.13;;
9767;SDS011;4923;52.520;13.494;2023-02-01T14:36:05;6.25;;;1.63;;
9767;SDS011;4923;52.520;13.494;2023-02-01T14:38:54;13.18;;;1.83;;
9767;SDS011;4923;52.520;13.494;2023-02-01T14:41:41;8.25;;;1.33;;
9767;SDS011;4923;52.520;13.494;2023-02-01T14:44:32;8.63;;;1.45;;
9767;SDS011;4923;52.520;13.494;2023-02-01T14:47:30;7.60;;;1.73;;
9767;SDS011;4923;52.520;13.494;2023-02-01T14:50:23;9.80;;;1.50;;
9767;SDS011;4923;52.520;13.494;2023-02-01T14:53:15;4.03;;;1.55;;
9767;SDS011;4923;52.520;13.494;2023-02-01T14:56:06;4.00;;;0.95;;
9767;SDS011;4923;52.520;13.494;2023-02-01T14:58:57;7.22;;;1.40;;
9767;SDS011;4923;52.520;13.494;2023-02-01T15:01:55;7.32;;;0.90;;
9767;SDS011;4923;52.520;13.494;2023-02-01T15:04:44;6.47;;;1.42;;
9767;SDS011;4923;52.520;13.494;2023-02-01T15:07:32;4.75;;;0.98;;
9767;SDS011;4923;52.520;13.494;2023-02-01T15:10:20;6.97;;;0.90;;
9767;SDS011;4923;52.520;13.494;2023-02-01T15:13:12;6.50;;;1.20;;
9767;SDS011;4923;52.520;13.494;2023-02-01T15:16:09;6.35;;;1.08;;
9767;SDS011;4923;52.520;13.494;2023-02-01T15:19:08;3.65;;;1.52;;
9767;SDS011;4923;52.520;13.494;2023-02-01T15:21:56;4.32;;;0.95;;
9767;SDS011;4923;52.520;13.494;2023-02-01T15:24:51;4.35;;;0.80;;
9767;SDS011;4923;52.520;13.494;2023-02-01T15:27:39;1.05;;;0.80;;
9767;SDS011;4923;52.520;13.494;2023-02-01T15:30:26;3.00;;;0.60;;
9767;SDS011;4923;52.520;13.494;2023-02-01T15:33:15;0.70;;;0.70;;
9767;SDS011;4923;52.520;13.494;2023-02-01T15:36:07;4.82;;;0.60;;
9767;SDS011;4923;52.520;13.494;2023-02-01T15:39:13;1.65;;;0.50;;
9767;SDS011;4923;52.520;13.494;2023-02-01T15:42:10;2.65;;;0.40;;
9767;SDS011;4923;52.520;13.494;2023-02-01T15:45:00;1.05;;;0.50;;
9767;SDS011;4923;52.520;13.494;2023-02-01T15:47:47;0.30;;;0.30;;
9767;SDS011;4923;52.520;13.494;2023-02-01T15:50:36;1.95;;;0.50;;
9767;SDS011;4923;52.520;13.494;2023-02-01T15:53:26;5.45;;;0.40;;
9767;SDS011;4923;52.520;13.494;2023-02-01T15:56:16;0.40;;;0.40;;
9767;SDS011;4923;52.520;13.494;2023-02-01T15:59:15;1.80;;;0.30;;
9767;SDS011;4923;52.520;13.494;2023-02-01T16:02:03;1.17;;;0.30;;
9767;SDS011;4923;52.520;13.494;2023-02-01T16:04:50;0.40;;;0.40;;
9767;SDS011;4923;52.520;13.494;2023-02-01T16:07:39;0.30;;;0.30;;
9767;SDS011;4923;52.520;13.494;2023-02-01T16:10:26;0.30;;;0.30;;
9767;SDS011;4923;52.520;13.494;2023-02-01T16:13:14;4.05;;;0.30;;
9767;SDS011;4923;52.520;13.494;2023-02-01T16:16:03;3.30;;;0.40;;
9767;SDS011;4923;52.520;13.494;2023-02-01T16:18:53;0.50;;;0.40;;
9767;SDS011;4923;52.520;13.494;2023-02-01T16:21:39;0.30;;;0.30;;
9767;SDS011;4923;52.520;13.494;2023-02-01T16:24:26;1.48;;;0.35;;
9767;SDS011;4923;52.520;13.494;2023-02-01T16:27:13;0.70;;;0.30;;
9767;SDS011;4923;52.520;13.494;2023-02-01T16:30:00;0.40;;;0.40;;
9767;SDS011;4923;52.520;13.494;2023-02-01T16:32:48;0.30;;;0.30;;
9767;SDS011;4923;52.520;13.494;2023-02-01T16:35:36;0.30;;;0.30;;
9767;SDS011;4923;52.520;13.494;2023-02-01T16:38:24;0.20;;;0.20;;
9767;SDS011;4923;52.520;13.494;2023-02-01T16:41:12;1.10;;;0.40;;
9767;SDS011;4923;52.520;13.494;2023-02-01T16:44:00;0.40;;;0.40;;
9767;SDS011;4923;52.520;13.494;2023-02-01T16:46:47;0.30;;;0.30;;
9767;SDS011;4923;52.520;13.494;2023-02-01T16:49:36;0.35;;;0.35;;
9767;SDS011;4923;52.520;13.494;2023-02-01T16:52:23;0.40;;;0.40;;
9767;SDS011;4923;52.520;13.494;2023-02-01T16:55:12;0.28;;;0.28;;
9767;SDS011;4923;52.520;13.494;2023-02-01T16:58:01;0.63;;;0.30;;
9767;SDS011;4923;52.520;13.494;2023-02-01T17:00:47;0.45;;;0.40;;
9767;SDS011;4923;52.520;13.494;2023-02-01T17:03:36;1.27;;;0.68;;
9767;SDS011;4923;52.520;13.494;2023-02-01T17:06:24;0.30;;;0.30;;
9767;SDS011;4923;52.520;13.494;2023-02-01T17:09:12;0.40;;;0.40;;
9767;SDS011;4923;52.520;13.494;2023-02-01T17:11:59;4.10;;;0.70;;
9767;SDS011;4923;52.520;13.494;2023-02-01T17:14:46;0.35;;;0.30;;
9767;SDS011;4923;52.520;13.494;2023-02-01T17:17:33;2.30;;;0.50;;
9767;SDS011;4923;52.520;13.494;2023-02-01T17:20:24;5.30;;;0.47;;
9767;SDS011;4923;52.520;13.494;2023-02-01T17:23:16;1.80;;;0.47;;
9767;SDS011;4923;52.520;13.494;2023-02-01T17:26:04;0.50;;;0.50;;
9767;SDS011;4923;52.520;13.494;2023-02-01T17:28:52;0.55;;;0.55;;
9767;SDS011;4923;52.520;13.494;2023-02-01T17:31:39;0.73;;;0.50;;
9767;SDS011;4923;52.520;13.494;2023-02-01T17:34:28;1.95;;;0.50;;
9767;SDS011;4923;52.520;13.494;2023-02-01T17:37:25;0.47;;;0.47;;
9767;SDS011;4923;52.520;13.494;2023-02-01T17:40:15;1.25;;;0.40;;
9767;SDS011;4923;52.520;13.494;2023-02-01T17:43:02;2.72;;;0.65;;